Atterbury, Indiana
Current Conditions -  °F | °C
As of 11:53 AM on Friday 28 Nov 2014 (Local Time) from KGEZ Reporting Station
Few Clouds Few Clouds  
Wind Chill: 19°   Ceiling: Unl
Heat Index: 29°   Visibility: 10mi
Dew Point: 18°   Wind: 13mph
Humidity: 64%   Direction: 190°S
Pressure: 30.3"   Gusts: NA
Location:  39.3642°N, 85.9645°W
Report Text: KGEZ 281653Z AUTO 19011KT 10SM FEW120 M02/M08 A3030 RMK AO2 SLP270 T10171078
Loading
Personal Weather Stations






























Interactive Weather Map New forecast layout! Learn more

10-Day Weather Forecast

Advertisements
Track Severe Weather on mobile